createdAt,value
2019-02-22T00:02:01.612Z,4.72
2019-02-22T00:04:32.061Z,5.22
2019-02-22T00:07:02.566Z,4.55
2019-02-22T00:09:33.205Z,4.35
2019-02-22T00:12:03.634Z,4.65
2019-02-22T00:14:34.064Z,4.30
2019-02-22T00:17:04.519Z,4.53
2019-02-22T00:19:35.012Z,5.22
2019-02-22T00:22:05.375Z,3.92
2019-02-22T00:24:35.878Z,4.75
2019-02-22T00:27:06.304Z,3.95
2019-02-22T00:29:36.611Z,4.50
2019-02-22T00:32:07.015Z,4.75
2019-02-22T00:34:37.339Z,4.55
2019-02-22T00:37:07.669Z,4.53
2019-02-22T00:39:38.050Z,4.53
2019-02-22T00:42:08.468Z,6.00
2019-02-22T00:44:38.878Z,4.17
2019-02-22T00:47:09.409Z,4.65
2019-02-22T00:49:41.058Z,4.45
2019-02-22T00:52:11.505Z,4.12
2019-02-22T00:54:41.919Z,5.40
2019-02-22T00:57:12.321Z,4.03
2019-02-22T00:59:42.756Z,5.87
2019-02-22T01:02:13.275Z,4.20
2019-02-22T01:04:43.682Z,3.42
2019-02-22T01:07:14.121Z,5.10
2019-02-22T01:09:44.396Z,3.95
2019-02-22T01:12:15.014Z,6.28
2019-02-22T01:14:45.543Z,3.98
2019-02-22T01:17:18.825Z,4.65
2019-02-22T01:19:49.134Z,4.40
2019-02-22T01:22:20.698Z,5.90
2019-02-22T01:24:52.136Z,4.08
2019-02-22T01:27:22.628Z,5.22
2019-02-22T01:29:53.094Z,3.77
2019-02-22T01:32:23.532Z,4.97
2019-02-22T01:34:54.167Z,3.30
2019-02-22T01:37:24.564Z,4.08
2019-02-22T01:39:55.043Z,4.47
2019-02-22T01:42:26.727Z,3.80
2019-02-22T01:44:57.125Z,4.10
2019-02-22T01:47:27.571Z,3.58
2019-02-22T01:49:58.006Z,3.92
2019-02-22T01:52:28.451Z,3.22
2019-02-22T01:54:58.795Z,3.80
2019-02-22T01:57:29.105Z,3.77
2019-02-22T01:59:59.435Z,4.30
2019-02-22T02:02:29.893Z,3.50
2019-02-22T02:05:00.353Z,3.52
2019-02-22T02:07:30.799Z,3.02
2019-02-22T02:10:01.238Z,3.58
2019-02-22T02:12:33.314Z,3.17
2019-02-22T02:15:03.777Z,3.52
2019-02-22T02:17:34.317Z,3.33
2019-02-22T02:20:05.371Z,4.03
2019-02-22T02:22:35.810Z,3.20
2019-02-22T02:25:06.905Z,3.85
2019-02-22T02:27:37.479Z,4.80
2019-02-22T02:30:08.253Z,3.40
2019-02-22T02:32:38.781Z,3.30
2019-02-22T02:35:09.141Z,3.65
2019-02-22T02:37:39.621Z,3.50
2019-02-22T02:40:10.029Z,3.37
2019-02-22T02:42:40.457Z,2.77
2019-02-22T02:45:10.769Z,3.87
2019-02-22T02:47:41.134Z,3.00
2019-02-22T02:50:14.071Z,3.72
2019-02-22T02:52:44.353Z,2.67
2019-02-22T02:55:29.109Z,3.52
2019-02-22T02:58:00.587Z,3.10
2019-02-22T03:00:30.984Z,4.47
2019-02-22T03:03:01.560Z,3.95
2019-02-22T03:05:50.579Z,3.60
2019-02-22T03:08:21.796Z,3.25
2019-02-22T03:10:52.159Z,3.20
2019-02-22T03:13:23.606Z,3.17
2019-02-22T03:15:54.097Z,4.05
2019-02-22T03:18:24.465Z,4.00
2019-02-22T03:20:54.817Z,3.37
2019-02-22T03:23:25.353Z,3.08
2019-02-22T03:25:55.831Z,3.92
2019-02-22T03:28:26.368Z,2.77
2019-02-22T03:30:56.770Z,3.08
2019-02-22T03:33:27.178Z,3.12
2019-02-22T03:35:57.662Z,3.10
2019-02-22T03:38:28.192Z,3.72
2019-02-22T03:40:58.615Z,3.22
2019-02-22T03:43:29.060Z,3.22
2019-02-22T03:45:59.532Z,3.92
2019-02-22T03:48:29.986Z,3.17
2019-02-22T03:51:00.292Z,2.80
2019-02-22T03:53:34.252Z,2.67
2019-02-22T03:56:04.597Z,3.42
2019-02-22T03:58:35.055Z,3.22
2019-02-22T04:01:05.432Z,4.47
2019-02-22T04:03:35.984Z,3.98
2019-02-22T04:06:06.393Z,4.42
2019-02-22T04:08:37.119Z,5.37
2019-02-22T04:11:07.499Z,5.17
2019-02-22T04:13:38.063Z,3.92
2019-02-22T04:16:08.471Z,3.50
2019-02-22T04:18:38.901Z,4.37
2019-02-22T04:21:09.319Z,4.85
2019-02-22T04:23:39.665Z,3.45
2019-02-22T04:26:10.209Z,3.95
2019-02-22T04:28:40.622Z,5.55
2019-02-22T04:31:11.005Z,3.08
2019-02-22T04:33:41.527Z,5.92
2019-02-22T04:36:12.035Z,3.37
2019-02-22T04:38:42.390Z,4.10
2019-02-22T04:41:12.775Z,3.20
2019-02-22T04:43:43.179Z,3.15
2019-02-22T04:46:13.569Z,2.77
2019-02-22T04:48:44.598Z,3.08
2019-02-22T04:51:15.111Z,2.50
2019-02-22T04:53:45.423Z,3.42
2019-02-22T04:56:15.955Z,4.42
2019-02-22T04:58:47.486Z,2.27
2019-02-22T05:01:17.968Z,2.52
2019-02-22T05:03:48.476Z,3.35
2019-02-22T05:06:18.914Z,2.65
2019-02-22T05:08:49.635Z,2.50
2019-02-22T05:11:20.108Z,3.12
2019-02-22T05:13:50.503Z,2.98
2019-02-22T05:16:21.058Z,2.83
2019-02-22T05:18:51.666Z,2.92
2019-02-22T05:21:22.304Z,2.45
2019-02-22T05:23:52.836Z,2.45
2019-02-22T05:26:23.283Z,3.27
2019-02-22T05:28:53.611Z,2.83
2019-02-22T05:31:24.139Z,2.80
2019-02-22T05:33:54.487Z,2.83
2019-02-22T05:36:24.791Z,6.37
2019-02-22T05:38:55.239Z,2.35
2019-02-22T05:41:26.657Z,3.30
2019-02-22T05:43:57.077Z,2.67
2019-02-22T05:46:27.475Z,3.08
2019-02-22T05:48:57.755Z,2.83
2019-02-22T05:51:29.145Z,2.40
2019-02-22T05:53:59.399Z,4.70
2019-02-22T05:56:29.648Z,3.27
2019-02-22T05:58:59.979Z,3.75
2019-02-22T06:01:30.363Z,3.90
2019-02-22T06:04:02.100Z,3.30
2019-02-22T06:06:32.545Z,4.30
2019-02-22T06:09:04.608Z,2.77
2019-02-22T06:11:35.112Z,3.58
2019-02-22T06:14:05.405Z,3.05
2019-02-22T06:16:37.301Z,3.62
2019-02-22T06:19:07.853Z,3.12
2019-02-22T06:21:38.338Z,4.55
2019-02-22T06:24:09.900Z,4.00
2019-02-22T06:26:40.343Z,2.60
2019-02-22T06:29:10.827Z,2.25
2019-02-22T06:31:41.214Z,4.37
2019-02-22T06:34:11.697Z,3.00
2019-02-22T06:36:42.215Z,3.00
2019-02-22T06:39:14.386Z,3.62
2019-02-22T06:41:44.858Z,8.78
2019-02-22T06:44:15.426Z,3.83
2019-02-22T06:46:45.753Z,4.12
2019-02-22T06:49:16.191Z,7.37
2019-02-22T06:51:46.968Z,4.28
2019-02-22T06:54:17.302Z,3.37
2019-02-22T06:56:47.671Z,3.15
2019-02-22T06:59:18.141Z,6.10
2019-02-22T07:01:50.010Z,13.98
2019-02-22T07:04:20.911Z,17.55
2019-02-22T07:06:53.911Z,14.50
2019-02-22T07:09:25.568Z,12.82
2019-02-22T07:12:04.442Z,13.98
2019-02-22T07:14:35.914Z,10.80
2019-02-22T07:17:06.405Z,12.93
2019-02-22T07:19:36.822Z,13.15
2019-02-22T07:22:09.250Z,20.52
2019-02-22T07:24:40.405Z,15.48
2019-02-22T07:27:10.942Z,18.80
2019-02-22T07:29:41.419Z,21.70
2019-02-22T07:32:13.674Z,16.00
2019-02-22T07:34:48.383Z,10.20
2019-02-22T07:37:18.981Z,14.20
2019-02-22T07:39:50.712Z,17.77
2019-02-22T07:42:25.856Z,12.82
2019-02-22T07:47:35.659Z,7.67
2019-02-22T07:50:14.291Z,7.28
2019-02-22T07:52:46.047Z,11.38
2019-02-22T07:58:12.878Z,6.97
2019-02-22T08:02:56.543Z,6.42
2019-02-22T08:05:26.733Z,5.42
2019-02-22T08:10:48.426Z,10.25
2019-02-22T08:13:20.006Z,5.83
2019-02-22T08:15:56.699Z,5.83
2019-02-22T08:18:33.008Z,6.80
2019-02-22T08:21:22.957Z,4.15
2019-02-22T08:23:56.152Z,7.00
2019-02-22T08:26:26.589Z,6.63
2019-02-22T08:28:56.996Z,6.93
2019-02-22T08:31:27.765Z,5.83
2019-02-22T08:33:58.401Z,3.13
2019-02-22T08:36:28.525Z,4.97
2019-02-22T08:39:04.569Z,6.97
2019-02-22T08:41:35.826Z,4.73
2019-02-22T08:44:09.558Z,4.97
2019-02-22T08:46:40.039Z,6.57
2019-02-22T08:49:11.932Z,6.53
2019-02-22T08:51:42.340Z,5.67
2019-02-22T08:54:16.709Z,5.93
2019-02-22T08:57:08.153Z,4.73
2019-02-22T09:01:46.415Z,6.97
2019-02-22T09:04:18.368Z,5.67
2019-02-22T09:06:52.409Z,8.80
2019-02-22T09:09:24.193Z,6.23
2019-02-22T09:11:57.472Z,5.57
2019-02-22T09:14:26.933Z,7.27
2019-02-22T09:16:57.708Z,6.63
2019-02-22T09:19:29.589Z,12.78
2019-02-22T09:24:59.317Z,31.20
2019-02-22T09:33:34.225Z,23.87
2019-02-22T09:36:04.824Z,18.00
2019-02-22T09:41:37.481Z,19.17
2019-02-22T09:44:27.261Z,22.67
2019-02-22T09:49:49.352Z,33.17
2019-02-22T09:52:23.114Z,31.83
2019-02-22T09:54:58.486Z,22.20
2019-02-22T09:57:31.530Z,23.60
2019-02-22T10:00:01.102Z,20.90
2019-02-22T10:02:34.135Z,26.97
2019-02-22T10:05:12.113Z,23.18
2019-02-22T10:07:46.303Z,25.05
2019-02-22T10:10:17.054Z,26.02
2019-02-22T10:12:47.524Z,15.80
2019-02-22T10:15:42.751Z,24.20
2019-02-22T10:18:19.857Z,28.52
2019-02-22T10:23:29.518Z,17.10
2019-02-22T10:25:59.203Z,15.58
2019-02-22T10:28:36.891Z,13.98
2019-02-22T10:41:34.085Z,9.83
2019-02-22T10:49:46.159Z,15.05
2019-02-22T10:52:26.562Z,19.60
2019-02-22T10:55:00.689Z,19.40
2019-02-22T10:57:32.418Z,17.70
2019-02-22T11:00:02.867Z,21.45
2019-02-22T11:02:33.281Z,24.32
2019-02-22T11:05:03.921Z,22.30
2019-02-22T11:07:37.023Z,19.52
2019-02-22T11:10:10.307Z,16.32
2019-02-22T11:12:43.773Z,16.23
2019-02-22T11:15:15.757Z,14.85
2019-02-22T11:17:46.170Z,3.77
2019-02-22T11:20:16.637Z,15.32
2019-02-22T11:22:48.878Z,9.73
2019-02-22T11:25:23.718Z,7.95
2019-02-22T11:30:28.784Z,13.15
2019-02-22T11:33:00.816Z,9.15
2019-02-22T11:35:31.775Z,21.15
2019-02-22T11:38:06.627Z,16.82
2019-02-22T11:40:37.089Z,10.48
2019-02-22T11:43:08.893Z,11.25
2019-02-22T11:45:39.758Z,25.60
2019-02-22T11:48:10.211Z,11.28
2019-02-22T11:50:40.734Z,7.78
2019-02-22T11:53:12.124Z,23.52
2019-02-22T11:55:42.880Z,14.65
2019-02-22T11:58:13.383Z,7.78
2019-02-22T12:00:44.435Z,8.33
2019-02-22T12:03:24.252Z,11.22
2019-02-22T12:05:48.070Z,20.02
2019-02-22T12:08:18.677Z,9.50
2019-02-22T12:10:49.309Z,17.92
2019-02-22T12:13:19.118Z,7.25
2019-02-22T12:15:49.488Z,8.05
2019-02-22T12:18:23.607Z,13.58
2019-02-22T12:21:05.222Z,9.53
2019-02-22T12:23:54.699Z,10.95
2019-02-22T12:26:25.364Z,21.10
2019-02-22T12:28:58.119Z,14.45
2019-02-22T12:31:33.685Z,14.10
2019-02-22T12:34:00.878Z,11.15
2019-02-22T12:36:32.763Z,8.68
2019-02-22T12:39:04.881Z,5.80
2019-02-22T12:41:37.085Z,11.00
2019-02-22T12:44:09.359Z,10.20
2019-02-22T12:46:41.498Z,9.93
2019-02-22T12:49:11.775Z,7.37
2019-02-22T12:51:42.186Z,19.00
2019-02-22T12:54:18.147Z,8.83
2019-02-22T12:56:57.868Z,9.38
2019-02-22T12:59:28.225Z,7.67
2019-02-22T13:02:01.411Z,10.95
2019-02-22T13:04:45.459Z,11.10
2019-02-22T13:07:21.152Z,14.47
2019-02-22T13:09:56.475Z,10.70
2019-02-22T13:12:28.318Z,6.17
2019-02-22T13:15:01.068Z,7.72
2019-02-22T13:17:31.989Z,7.53
